createdAt,value
2018-04-22T00:00:25.680Z,97.08
2018-04-22T00:01:25.654Z,97.56
2018-04-22T00:02:25.645Z,97.28
2018-04-22T00:03:25.641Z,98.90
2018-04-22T00:04:25.620Z,98.90
2018-04-22T00:05:25.604Z,98.52
2018-04-22T00:06:25.597Z,98.28
2018-04-22T00:07:25.591Z,97.56
2018-04-22T00:08:25.567Z,96.80
2018-04-22T00:09:25.578Z,95.79
2018-04-22T00:10:25.544Z,98.18
2018-04-22T00:11:25.528Z,97.71
2018-04-22T00:12:25.515Z,96.47
2018-04-22T00:13:25.499Z,97.04
2018-04-22T00:14:25.495Z,98.18
2018-04-22T00:15:25.482Z,97.52
2018-04-22T00:16:25.467Z,97.99
2018-04-22T00:17:25.447Z,99.04
2018-04-22T00:18:25.448Z,97.99
2018-04-22T00:19:25.429Z,97.71
2018-04-22T00:20:25.420Z,98.28
2018-04-22T00:21:25.404Z,98.47
2018-04-22T00:22:25.390Z,98.18
2018-04-22T00:23:25.387Z,97.99
2018-04-22T00:24:25.362Z,99.24
2018-04-22T00:25:25.346Z,99.43
2018-04-22T00:26:25.340Z,97.99
2018-04-22T00:27:25.321Z,98.09
2018-04-22T00:28:25.307Z,99.04
2018-04-22T00:29:25.346Z,98.66
2018-04-22T00:30:25.294Z,97.99
2018-04-22T00:31:25.276Z,98.75
2018-04-22T00:32:25.257Z,99.52
2018-04-22T00:33:25.247Z,99.24
2018-04-22T00:34:25.241Z,99.62
2018-04-22T00:35:25.218Z,98.95
2018-04-22T00:36:25.209Z,99.52
2018-04-22T00:37:25.192Z,99.43
2018-04-22T00:38:25.190Z,98.09
2018-04-22T00:39:25.174Z,98.66
2018-04-22T00:40:25.157Z,98.66
2018-04-22T00:41:25.148Z,99.24
2018-04-22T00:42:25.151Z,98.66
2018-04-22T00:43:25.120Z,98.61
2018-04-22T00:44:25.107Z,99.28
2018-04-22T00:45:25.089Z,99.99
2018-04-22T00:46:25.078Z,99.99
2018-04-22T00:47:25.065Z,99.99
2018-04-22T00:48:25.059Z,99.99
2018-04-22T00:49:25.039Z,99.99
2018-04-22T00:50:25.037Z,99.19
2018-04-22T00:51:25.012Z,99.99
2018-04-22T00:52:25.009Z,99.48
2018-04-22T00:53:24.989Z,99.99
2018-04-22T00:54:24.976Z,99.99
2018-04-22T00:55:24.958Z,98.90
2018-04-22T00:56:24.945Z,99.99
2018-04-22T00:57:24.935Z,99.38
2018-04-22T00:58:24.926Z,99.66
2018-04-22T00:59:24.914Z,99.99
2018-04-22T01:00:24.900Z,99.99
2018-04-22T01:01:24.891Z,99.57
2018-04-22T01:02:24.878Z,99.99
2018-04-22T01:03:24.857Z,99.38
2018-04-22T01:04:24.839Z,99.99
2018-04-22T01:05:24.834Z,99.99
2018-04-22T01:06:24.816Z,99.57
2018-04-22T01:07:24.812Z,99.95
2018-04-22T01:08:24.797Z,99.38
2018-04-22T01:09:24.787Z,99.99
2018-04-22T01:10:24.783Z,99.99
2018-04-22T01:11:24.752Z,99.99
2018-04-22T01:12:24.738Z,99.99
2018-04-22T01:13:24.748Z,99.99
2018-04-22T01:14:24.758Z,99.99
2018-04-22T01:15:24.703Z,99.99
2018-04-22T01:16:24.694Z,99.99
2018-04-22T01:17:24.685Z,99.99
2018-04-22T01:18:24.656Z,99.99
2018-04-22T01:19:24.642Z,99.85
2018-04-22T01:20:24.633Z,99.99
2018-04-22T01:21:24.631Z,99.99
2018-04-22T01:22:24.613Z,99.99
2018-04-22T01:23:24.591Z,99.99
2018-04-22T01:24:24.579Z,99.99
2018-04-22T01:25:24.575Z,99.99
2018-04-22T01:26:24.560Z,99.66
2018-04-22T01:27:24.578Z,99.99
2018-04-22T01:28:24.537Z,99.76
2018-04-22T01:29:24.518Z,99.99
2018-04-22T01:30:24.506Z,99.99
2018-04-22T01:31:24.487Z,99.99
2018-04-22T01:32:24.474Z,99.99
2018-04-22T01:33:24.462Z,99.99
2018-04-22T01:34:24.456Z,99.99
2018-04-22T01:35:24.443Z,99.99
2018-04-22T01:36:24.426Z,99.99
2018-04-22T01:37:24.414Z,99.99
2018-04-22T01:38:24.398Z,99.99
2018-04-22T01:39:24.389Z,99.99
2018-04-22T01:40:24.372Z,99.99
2018-04-22T01:41:24.357Z,99.99
2018-04-22T01:42:24.344Z,99.99
2018-04-22T01:43:24.334Z,99.99
2018-04-22T01:44:24.322Z,99.99
2018-04-22T01:45:24.305Z,99.99
2018-04-22T01:46:24.322Z,99.99
2018-04-22T01:47:24.283Z,99.99
2018-04-22T01:48:24.268Z,99.99
2018-04-22T01:49:24.263Z,99.76
2018-04-22T01:50:24.242Z,99.99
2018-04-22T01:51:24.227Z,99.66
2018-04-22T01:52:24.218Z,99.38
2018-04-22T01:53:24.203Z,99.48
2018-04-22T01:54:24.198Z,99.99
2018-04-22T01:55:24.169Z,99.62
2018-04-22T01:56:24.156Z,99.99
2018-04-22T01:57:24.150Z,99.99
2018-04-22T01:58:24.130Z,99.99
2018-04-22T01:59:24.123Z,99.99
2018-04-22T02:00:24.104Z,99.90
2018-04-22T02:01:24.095Z,99.99
2018-04-22T02:02:24.082Z,99.99
2018-04-22T02:03:24.104Z,99.99
2018-04-22T02:04:24.047Z,99.99
2018-04-22T02:05:24.040Z,99.99
2018-04-22T02:06:24.026Z,99.99
2018-04-22T02:07:24.014Z,99.99
2018-04-22T02:08:23.995Z,99.99
2018-04-22T02:09:23.987Z,99.99
2018-04-22T02:10:23.966Z,99.99
2018-04-22T02:11:24.838Z,99.99
2018-04-22T02:12:23.946Z,99.99
2018-04-22T02:13:23.929Z,99.99
2018-04-22T02:14:23.917Z,99.99
2018-04-22T02:15:23.901Z,99.99
2018-04-22T02:16:23.894Z,99.99
2018-04-22T02:17:23.878Z,99.99
2018-04-22T02:18:23.864Z,99.99
2018-04-22T02:19:23.849Z,99.99
2018-04-22T02:20:23.837Z,99.99
2018-04-22T02:21:23.820Z,99.99
2018-04-22T02:22:23.811Z,99.99
2018-04-22T02:23:23.795Z,99.99
2018-04-22T02:24:23.785Z,99.99
2018-04-22T02:25:23.778Z,99.99
2018-04-22T02:26:23.753Z,99.99
2018-04-22T02:27:23.747Z,99.99
2018-04-22T02:28:23.734Z,99.99
2018-04-22T02:29:23.711Z,99.99
2018-04-22T02:30:23.699Z,99.99
2018-04-22T02:31:23.692Z,99.99
2018-04-22T02:32:23.673Z,99.43
2018-04-22T02:33:23.679Z,99.99
2018-04-22T02:34:23.666Z,99.99
2018-04-22T02:35:23.634Z,99.99
2018-04-22T02:36:23.612Z,99.99
2018-04-22T02:37:23.598Z,99.99
2018-04-22T02:38:23.592Z,99.99
2018-04-22T02:39:23.578Z,99.80
2018-04-22T02:40:23.556Z,99.99
2018-04-22T02:41:23.552Z,99.99
2018-04-22T02:42:23.540Z,99.99
2018-04-22T02:43:23.521Z,99.99
2018-04-22T02:44:23.498Z,99.99
2018-04-22T02:45:23.492Z,99.99
2018-04-22T02:46:23.469Z,99.99
2018-04-22T02:47:23.469Z,99.99
2018-04-22T02:48:23.453Z,99.99
2018-04-22T02:49:23.460Z,99.99
2018-04-22T02:50:23.423Z,99.99
2018-04-22T02:51:23.415Z,99.99
2018-04-22T02:52:23.395Z,99.99
2018-04-22T02:53:23.383Z,99.99
2018-04-22T02:54:23.372Z,99.99
2018-04-22T02:55:23.359Z,99.99
2018-04-22T02:56:23.338Z,99.99
2018-04-22T02:57:23.329Z,99.99
2018-04-22T02:58:23.314Z,99.99
2018-04-22T02:59:23.290Z,99.99
2018-04-22T03:00:23.292Z,99.99
2018-04-22T03:01:23.272Z,99.99
2018-04-22T03:02:23.256Z,99.99
2018-04-22T03:03:23.252Z,99.99
2018-04-22T03:04:23.227Z,99.99
2018-04-22T03:05:23.212Z,99.99
2018-04-22T03:06:23.203Z,99.99
2018-04-22T03:07:23.190Z,99.99
2018-04-22T03:08:23.193Z,99.99
2018-04-22T03:09:23.160Z,99.99
2018-04-22T03:10:23.151Z,99.99
2018-04-22T03:11:23.129Z,99.99
2018-04-22T03:12:23.117Z,99.99
2018-04-22T03:13:23.113Z,99.99
2018-04-22T03:14:23.097Z,99.99
2018-04-22T03:15:23.078Z,99.99
2018-04-22T03:16:23.058Z,99.99
2018-04-22T03:17:23.039Z,99.99
2018-04-22T03:18:23.051Z,99.99
2018-04-22T03:19:23.014Z,99.99
2018-04-22T03:20:23.002Z,99.99
2018-04-22T03:21:22.990Z,99.99
2018-04-22T03:22:22.969Z,99.99
2018-04-22T03:23:22.975Z,99.99
2018-04-22T03:24:22.947Z,99.99
2018-04-22T03:25:22.934Z,99.99
2018-04-22T03:26:22.912Z,99.99
2018-04-22T03:27:22.905Z,99.99
2018-04-22T03:28:22.883Z,99.99
2018-04-22T03:29:22.873Z,99.99
2018-04-22T03:30:22.863Z,99.99
2018-04-22T03:31:22.844Z,99.99
2018-04-22T03:32:22.833Z,99.99
2018-04-22T03:33:22.819Z,99.99
2018-04-22T03:34:22.807Z,99.99
2018-04-22T03:35:22.797Z,99.99
2018-04-22T03:36:22.774Z,99.99
2018-04-22T03:37:22.771Z,99.99
2018-04-22T03:38:22.746Z,99.99
2018-04-22T03:39:22.736Z,99.99
2018-04-22T03:40:22.718Z,99.99
2018-04-22T03:41:22.725Z,99.99
2018-04-22T03:42:22.699Z,99.99
2018-04-22T03:43:22.692Z,99.99
2018-04-22T03:44:22.663Z,99.99
2018-04-22T03:45:22.651Z,99.99
2018-04-22T03:46:22.642Z,99.99
2018-04-22T03:47:22.632Z,99.99
2018-04-22T03:48:22.610Z,99.99
2018-04-22T03:49:22.595Z,99.99
2018-04-22T03:50:22.585Z,99.99
2018-04-22T03:51:22.572Z,99.99
2018-04-22T03:52:22.559Z,99.99
2018-04-22T03:53:22.543Z,99.99
2018-04-22T03:54:22.527Z,99.99
2018-04-22T03:55:22.512Z,99.99
2018-04-22T03:56:22.492Z,99.99
2018-04-22T03:57:22.486Z,99.99
2018-04-22T03:58:22.476Z,99.99
2018-04-22T03:59:22.460Z,99.99
2018-04-22T04:00:22.450Z,99.99
2018-04-22T04:01:22.454Z,99.99
2018-04-22T04:02:22.428Z,99.99
2018-04-22T04:03:22.410Z,99.99
2018-04-22T04:04:22.388Z,99.99
2018-04-22T04:05:22.369Z,99.99
2018-04-22T04:06:22.365Z,99.99
2018-04-22T04:07:22.346Z,99.99
2018-04-22T04:08:22.327Z,99.99
2018-04-22T04:09:22.327Z,99.99
2018-04-22T04:10:22.298Z,99.99
2018-04-22T04:11:22.292Z,99.99
2018-04-22T04:12:22.276Z,99.99
2018-04-22T04:13:22.264Z,99.99
2018-04-22T04:14:22.246Z,99.99
2018-04-22T04:15:22.238Z,99.99
2018-04-22T04:16:22.222Z,99.99
2018-04-22T04:17:22.206Z,99.99
2018-04-22T04:18:22.190Z,99.99
2018-04-22T04:19:22.196Z,99.99
2018-04-22T04:20:22.168Z,99.99
2018-04-22T04:21:22.145Z,99.99
2018-04-22T04:22:22.133Z,99.99
2018-04-22T04:23:22.145Z,99.99
2018-04-22T04:24:22.110Z,99.99
2018-04-22T04:25:22.094Z,99.99
2018-04-22T04:26:22.088Z,99.99
2018-04-22T04:27:22.061Z,99.99
2018-04-22T04:28:22.039Z,99.99
2018-04-22T04:29:22.033Z,99.99
2018-04-22T04:30:22.019Z,99.99
2018-04-22T04:31:22.016Z,99.99
2018-04-22T04:32:22.010Z,99.99
2018-04-22T04:33:21.974Z,99.99
2018-04-22T04:34:21.959Z,99.99
2018-04-22T04:35:21.962Z,99.99
2018-04-22T04:36:21.933Z,99.99
2018-04-22T04:37:21.927Z,99.99
2018-04-22T04:38:21.911Z,99.99
2018-04-22T04:39:21.888Z,99.99
2018-04-22T04:40:21.872Z,99.99
2018-04-22T04:41:21.863Z,99.99
2018-04-22T04:42:21.844Z,99.99
2018-04-22T04:43:21.883Z,99.99
2018-04-22T04:44:21.820Z,99.99
2018-04-22T04:45:21.814Z,99.99
2018-04-22T04:46:21.800Z,99.99
2018-04-22T04:47:21.777Z,99.99
2018-04-22T04:48:21.765Z,99.99
2018-04-22T04:49:21.750Z,99.99
2018-04-22T04:50:21.733Z,99.99
2018-04-22T04:51:21.717Z,99.99
2018-04-22T04:52:21.702Z,99.99
2018-04-22T04:53:21.690Z,99.99
2018-04-22T04:54:21.692Z,99.99
2018-04-22T04:55:21.665Z,99.99
2018-04-22T04:56:21.647Z,99.99
2018-04-22T04:57:21.634Z,99.99
2018-04-22T04:58:21.620Z,99.99
2018-04-22T04:59:21.601Z,99.99
2018-04-22T05:00:21.607Z,99.99
2018-04-22T05:01:21.585Z,99.99
2018-04-22T05:02:21.565Z,99.99
2018-04-22T05:03:21.552Z,99.99
2018-04-22T05:04:21.536Z,99.99
2018-04-22T05:05:21.520Z,99.99
2018-04-22T05:06:21.511Z,99.99
2018-04-22T05:07:21.498Z,99.99
2018-04-22T05:08:21.483Z,99.99
2018-04-22T05:09:21.470Z,99.99
2018-04-22T05:10:21.450Z,99.99
2018-04-22T05:11:21.442Z,99.99
2018-04-22T05:12:21.421Z,99.99
2018-04-22T05:13:21.415Z,99.99
2018-04-22T05:14:21.404Z,99.99
2018-04-22T05:15:21.386Z,99.99
2018-04-22T05:16:21.369Z,99.99
2018-04-22T05:17:21.357Z,99.99
2018-04-22T05:18:21.351Z,99.99
2018-04-22T05:19:21.331Z,99.99
2018-04-22T05:20:21.315Z,99.99
2018-04-22T05:21:21.303Z,99.99
2018-04-22T05:22:21.283Z,99.99
2018-04-22T05:23:21.271Z,99.99
2018-04-22T05:24:21.269Z,99.99
2018-04-22T05:25:21.280Z,99.99
2018-04-22T05:26:21.232Z,99.99
2018-04-22T05:27:21.219Z,99.99
2018-04-22T05:28:21.230Z,99.99
2018-04-22T05:29:21.194Z,99.99
2018-04-22T05:30:21.175Z,99.99
2018-04-22T05:31:21.159Z,99.99
2018-04-22T05:32:21.149Z,99.99
2018-04-22T05:33:21.150Z,99.99
2018-04-22T05:34:21.133Z,99.99
2018-04-22T05:35:21.108Z,99.99
2018-04-22T05:36:21.093Z,99.99
2018-04-22T05:37:21.079Z,99.99
2018-04-22T05:38:21.072Z,99.99
2018-04-22T05:39:21.047Z,99.99
2018-04-22T05:40:21.064Z,99.99
2018-04-22T05:41:21.040Z,99.99
2018-04-22T05:42:21.025Z,99.99
2018-04-22T05:43:20.995Z,99.99
2018-04-22T05:44:20.979Z,99.99
2018-04-22T05:45:20.970Z,99.99
2018-04-22T05:46:20.953Z,99.99
2018-04-22T05:47:20.942Z,99.99
2018-04-22T05:48:20.926Z,99.99
2018-04-22T05:49:20.913Z,99.99
2018-04-22T05:50:20.907Z,99.99
2018-04-22T05:51:20.888Z,99.99
2018-04-22T05:52:20.871Z,99.99
2018-04-22T05:53:20.861Z,99.99
2018-04-22T05:54:20.852Z,99.99
2018-04-22T05:55:20.828Z,99.99
2018-04-22T05:56:20.823Z,99.99
2018-04-22T05:57:20.805Z,99.99
2018-04-22T05:58:20.785Z,99.99
2018-04-22T05:59:20.773Z,99.99
2018-04-22T06:00:20.771Z,99.99
2018-04-22T06:01:20.744Z,99.99
2018-04-22T06:02:20.750Z,99.99
2018-04-22T06:03:20.736Z,99.99
2018-04-22T06:04:20.714Z,99.99
2018-04-22T06:05:20.702Z,99.99
2018-04-22T06:06:20.687Z,99.99
2018-04-22T06:07:20.675Z,99.99
2018-04-22T06:08:20.658Z,99.99
2018-04-22T06:09:20.654Z,99.99
2018-04-22T06:10:20.632Z,99.99
2018-04-22T06:11:20.628Z,99.99
2018-04-22T06:12:20.617Z,99.99
2018-04-22T06:13:20.604Z,99.99
2018-04-22T06:14:20.604Z,99.99
2018-04-22T06:15:20.575Z,99.99
2018-04-22T06:16:20.568Z,99.34
2018-04-22T06:17:20.597Z,98.47
2018-04-22T06:18:20.538Z,98.57
2018-04-22T06:19:20.523Z,97.42
2018-04-22T06:20:20.512Z,96.42
2018-04-22T06:21:20.495Z,95.46
2018-04-22T06:22:20.489Z,95.36
2018-04-22T06:23:20.479Z,95.60
2018-04-22T06:24:20.472Z,96.47
2018-04-22T06:25:20.469Z,93.49
2018-04-22T06:26:20.435Z,94.26
2018-04-22T06:27:20.428Z,94.17
2018-04-22T06:28:20.448Z,94.74
2018-04-22T06:29:20.403Z,94.84
2018-04-22T06:30:20.394Z,94.17
2018-04-22T06:31:20.409Z,94.64
2018-04-22T06:32:20.367Z,95.03
2018-04-22T06:33:20.371Z,93.68
2018-04-22T06:34:20.355Z,93.11
2018-04-22T06:35:20.339Z,94.84
2018-04-22T06:36:20.329Z,94.93
2018-04-22T06:37:20.307Z,92.96
2018-04-22T06:38:20.304Z,91.72
2018-04-22T06:39:20.295Z,91.52
2018-04-22T06:40:20.331Z,91.42
2018-04-22T06:41:20.266Z,90.47
2018-04-22T06:42:20.262Z,90.08
2018-04-22T06:43:20.258Z,89.79
2018-04-22T06:44:20.240Z,90.37
2018-04-22T06:45:20.231Z,89.41
2018-04-22T06:46:20.218Z,89.26
2018-04-22T06:47:20.221Z,90.22
2018-04-22T06:48:20.195Z,88.88
2018-04-22T06:49:20.186Z,89.46
2018-04-22T06:50:20.170Z,89.46
2018-04-22T06:51:20.163Z,88.69
2018-04-22T06:52:20.148Z,88.69
2018-04-22T06:53:20.188Z,88.11
2018-04-22T06:54:20.131Z,88.02
2018-04-22T06:55:20.118Z,88.93
2018-04-22T06:56:20.099Z,87.77
2018-04-22T06:57:20.097Z,88.25
2018-04-22T06:58:20.080Z,88.25
2018-04-22T06:59:20.074Z,87.96
2018-04-22T07:00:20.067Z,86.52
2018-04-22T07:01:20.056Z,87.10
2018-04-22T07:02:20.043Z,86.72
2018-04-22T07:03:20.035Z,85.95
2018-04-22T07:04:20.018Z,86.72
2018-04-22T07:05:20.006Z,85.66
2018-04-22T07:06:20.075Z,85.75
2018-04-22T07:07:19.996Z,86.85
2018-04-22T07:08:19.979Z,85.71
2018-04-22T07:09:19.993Z,85.99
2018-04-22T07:10:19.960Z,86.85
2018-04-22T07:11:19.950Z,87.15
2018-04-22T07:12:19.937Z,87.24
2018-04-22T07:13:19.935Z,87.34
2018-04-22T07:14:19.915Z,87.82
2018-04-22T07:15:19.903Z,86.52
2018-04-22T07:16:19.890Z,87.10
2018-04-22T07:17:19.894Z,86.57
2018-04-22T07:18:19.881Z,85.71
2018-04-22T07:19:19.864Z,84.55
2018-04-22T07:20:19.866Z,84.59
2018-04-22T07:21:19.839Z,85.80
2018-04-22T07:22:19.832Z,84.50
2018-04-22T07:23:19.829Z,85.80
2018-04-22T07:24:19.817Z,84.50
2018-04-22T07:25:19.801Z,83.92
2018-04-22T07:26:19.806Z,84.98
2018-04-22T07:27:19.785Z,85.17
2018-04-22T07:28:19.771Z,84.59
2018-04-22T07:29:19.781Z,84.69
2018-04-22T07:30:19.771Z,82.76
2018-04-22T07:31:19.744Z,84.30
2018-04-22T07:32:19.737Z,83.96
2018-04-22T07:33:19.725Z,83.06
2018-04-22T07:34:19.727Z,85.27
2018-04-22T07:35:19.702Z,86.94
2018-04-22T07:36:19.698Z,86.52
2018-04-22T07:37:19.686Z,84.06
2018-04-22T07:38:19.679Z,87.52
2018-04-22T07:39:19.679Z,86.08
2018-04-22T07:40:19.653Z,85.02
2018-04-22T07:41:19.678Z,86.27
2018-04-22T07:42:19.669Z,89.58
2018-04-22T07:43:19.630Z,89.68
2018-04-22T07:44:19.623Z,89.87
2018-04-22T07:45:19.607Z,88.81
2018-04-22T07:46:19.604Z,90.83
2018-04-22T07:47:19.634Z,91.17
2018-04-22T07:48:19.612Z,91.84
2018-04-22T07:49:19.565Z,89.72
2018-04-22T07:50:19.563Z,91.94
2018-04-22T07:51:19.579Z,91.13
2018-04-22T07:52:19.543Z,91.22
2018-04-22T07:53:19.565Z,89.78
2018-04-22T07:54:19.550Z,90.83
2018-04-22T07:55:19.543Z,90.41
2018-04-22T07:56:19.524Z,90.41
2018-04-22T07:57:19.517Z,90.21
2018-04-22T07:58:19.505Z,90.98
2018-04-22T07:59:19.482Z,91.75
2018-04-22T08:00:19.485Z,92.66
2018-04-22T08:01:19.473Z,94.30
2018-04-22T08:02:19.517Z,93.43
2018-04-22T08:03:19.527Z,91.85
2018-04-22T08:04:19.453Z,90.59
2018-04-22T08:05:19.708Z,93.24
2018-04-22T08:06:20.992Z,92.08
2018-04-22T08:07:20.531Z,90.59
2018-04-22T08:08:19.486Z,89.78
2018-04-22T08:09:19.438Z,89.87
2018-04-22T08:10:19.710Z,90.55
2018-04-22T08:11:19.414Z,90.06
2018-04-22T08:12:19.381Z,90.16
2018-04-22T08:13:19.368Z,90.93
2018-04-22T08:14:19.391Z,91.70
2018-04-22T08:15:19.641Z,90.45
2018-04-22T08:16:19.363Z,91.41
2018-04-22T08:17:19.341Z,90.78
2018-04-22T08:18:19.362Z,90.55
2018-04-22T08:19:19.343Z,90.93
2018-04-22T08:20:19.522Z,90.16
2018-04-22T08:21:19.647Z,90.59
2018-04-22T08:22:19.300Z,89.15
2018-04-22T08:23:19.289Z,89.24
2018-04-22T08:24:19.286Z,89.72
2018-04-22T08:25:19.302Z,88.32
2018-04-22T08:26:19.302Z,88.71
2018-04-22T08:27:19.322Z,87.94
2018-04-22T08:28:19.296Z,91.31
2018-04-22T08:29:19.241Z,87.88
2018-04-22T08:30:19.239Z,88.42
2018-04-22T08:31:19.251Z,87.40
2018-04-22T08:32:19.212Z,86.35
2018-04-22T08:33:19.217Z,86.44
2018-04-22T08:34:19.205Z,86.63
2018-04-22T08:35:19.199Z,86.15
2018-04-22T08:36:19.180Z,85.96
2018-04-22T08:37:19.189Z,85.13
2018-04-22T08:38:19.174Z,81.95
2018-04-22T08:39:19.170Z,79.77
2018-04-22T08:40:19.148Z,76.78
2018-04-22T08:41:19.154Z,75.27
2018-04-22T08:42:19.167Z,73.96
2018-04-22T08:43:19.141Z,74.58
2018-04-22T08:44:19.132Z,75.29
2018-04-22T08:45:19.161Z,73.49
2018-04-22T08:46:19.135Z,70.75
2018-04-22T08:47:19.126Z,72.10
2018-04-22T08:48:19.144Z,73.13
2018-04-22T08:49:19.138Z,73.71
2018-04-22T08:50:19.094Z,71.88
2018-04-22T08:51:19.094Z,72.16
2018-04-22T08:52:19.097Z,72.10
2018-04-22T08:53:19.145Z,71.84
2018-04-22T08:54:19.090Z,70.68
2018-04-22T08:55:19.078Z,71.11
2018-04-22T08:56:19.075Z,69.59
2018-04-22T08:57:19.087Z,67.98
2018-04-22T08:58:19.085Z,65.95
2018-04-22T08:59:19.094Z,65.98
2018-04-22T09:00:19.093Z,65.69
2018-04-22T09:01:19.061Z,64.17
2018-04-22T09:02:19.065Z,62.95
2018-04-22T09:03:19.080Z,64.98
2018-04-22T09:04:19.069Z,67.96
2018-04-22T09:05:19.071Z,62.35
2018-04-22T09:06:19.068Z,61.00
2018-04-22T09:07:19.065Z,60.05
2018-04-22T09:08:19.058Z,57.72
2018-04-22T09:09:19.076Z,59.25
2018-04-22T09:10:19.071Z,59.80
2018-04-22T09:11:19.072Z,59.92
2018-04-22T09:12:19.071Z,58.90
2018-04-22T09:13:19.065Z,60.16
2018-04-22T09:14:19.076Z,61.55
2018-04-22T09:15:19.078Z,61.19
2018-04-22T09:16:19.079Z,62.29
2018-04-22T09:17:19.077Z,60.93
2018-04-22T09:18:19.078Z,57.85
2018-04-22T09:19:19.090Z,61.35
2018-04-22T09:20:19.094Z,57.20
2018-04-22T09:21:19.090Z,57.20
2018-04-22T09:22:19.108Z,56.97
2018-04-22T09:23:19.095Z,57.46
2018-04-22T09:24:19.096Z,55.32
2018-04-22T09:25:19.096Z,56.68
2018-04-22T09:26:19.103Z,57.26
2018-04-22T09:27:19.109Z,57.29
2018-04-22T09:28:19.109Z,58.10
2018-04-22T09:29:19.116Z,56.64
2018-04-22T09:30:19.148Z,55.76
2018-04-22T09:31:19.135Z,55.37
2018-04-22T09:32:19.128Z,55.79
2018-04-22T09:33:19.141Z,52.58
2018-04-22T09:34:19.142Z,54.60
2018-04-22T09:35:19.138Z,56.61
2018-04-22T09:36:19.138Z,56.71
2018-04-22T09:37:19.134Z,60.14
2018-04-22T09:38:19.134Z,62.77
2018-04-22T09:39:19.167Z,56.54
2018-04-22T09:40:19.163Z,57.25
2018-04-22T09:41:19.150Z,51.73
2018-04-22T09:42:19.158Z,55.13
2018-04-22T09:43:19.157Z,54.26
2018-04-22T09:44:19.171Z,54.68
2018-04-22T09:45:19.167Z,53.36
2018-04-22T09:46:19.170Z,51.53
2018-04-22T09:47:19.170Z,53.65
2018-04-22T09:48:19.183Z,54.33
2018-04-22T09:49:19.182Z,56.76
2018-04-22T09:50:19.182Z,58.71
2018-04-22T09:51:19.186Z,61.44
2018-04-22T09:52:19.187Z,58.97
2018-04-22T09:53:19.233Z,61.51
2018-04-22T09:54:19.236Z,59.36
2018-04-22T09:55:19.202Z,58.81
2018-04-22T09:56:19.203Z,59.49
2018-04-22T09:57:19.205Z,54.82
2018-04-22T09:58:19.215Z,53.45
2018-04-22T09:59:19.218Z,53.45
2018-04-22T10:00:19.219Z,56.57
2018-04-22T10:01:19.221Z,57.74
2018-04-22T10:02:19.235Z,55.82
2018-04-22T10:03:19.239Z,51.78
2018-04-22T10:04:19.238Z,52.34
2018-04-22T10:05:19.264Z,57.89
2018-04-22T10:06:19.248Z,56.89
2018-04-22T10:07:19.250Z,62.15
2018-04-22T10:08:19.251Z,58.13
2018-04-22T10:09:19.254Z,57.74
2018-04-22T10:10:19.254Z,55.69
2018-04-22T10:11:19.265Z,59.78
2018-04-22T10:12:19.257Z,56.05
2018-04-22T10:13:19.276Z,60.46
2018-04-22T10:14:19.269Z,59.91
2018-04-22T10:15:19.267Z,53.99
2018-04-22T10:16:19.284Z,53.31
2018-04-22T10:17:19.273Z,51.17
2018-04-22T10:18:19.274Z,55.29
2018-04-22T10:19:19.286Z,53.60
2018-04-22T10:20:19.288Z,56.46
2018-04-22T10:21:19.277Z,53.53
2018-04-22T10:22:19.286Z,50.92
2018-04-22T10:23:19.299Z,57.95
2018-04-22T10:24:19.289Z,58.63
2018-04-22T10:25:19.317Z,58.34
2018-04-22T10:26:19.299Z,59.87
2018-04-22T10:27:19.312Z,57.75
2018-04-22T10:28:19.309Z,53.91
2018-04-22T10:29:19.325Z,51.17
2018-04-22T10:30:19.321Z,49.53
2018-04-22T10:31:19.343Z,52.93
2018-04-22T10:32:19.328Z,52.08
2018-04-22T10:33:19.341Z,49.07
2018-04-22T10:34:19.334Z,44.96
2018-04-22T10:35:19.351Z,50.90
2018-04-22T10:36:19.351Z,52.93
2018-04-22T10:37:19.366Z,53.44
2018-04-22T10:38:19.357Z,48.68
2018-04-22T10:39:19.383Z,46.23
2018-04-22T10:40:19.376Z,44.67
2018-04-22T10:41:19.375Z,48.28
2018-04-22T10:42:19.376Z,48.68
2018-04-22T10:43:19.388Z,44.30
2018-04-22T10:44:19.387Z,44.30
2018-04-22T10:45:19.398Z,46.57
2018-04-22T10:46:19.408Z,46.08
2018-04-22T10:47:19.438Z,44.09
2018-04-22T10:48:19.420Z,43.48
2018-04-22T10:49:19.429Z,41.33
2018-04-22T10:50:19.430Z,48.87
2018-04-22T10:51:19.482Z,47.14
2018-04-22T10:52:19.448Z,46.28
2018-04-22T10:53:19.477Z,44.44
2018-04-22T10:54:19.461Z,43.58
2018-04-22T10:55:19.468Z,43.92
2018-04-22T10:56:19.484Z,42.21
2018-04-22T10:57:19.508Z,47.18
2018-04-22T10:58:19.486Z,44.62
2018-04-22T10:59:19.500Z,42.50
2018-04-22T11:00:19.509Z,40.86
2018-04-22T11:01:19.531Z,43.62
2018-04-22T11:02:19.525Z,42.86
2018-04-22T11:03:19.531Z,43.92
2018-04-22T11:04:19.554Z,42.94
2018-04-22T11:05:19.544Z,35.78
2018-04-22T11:06:19.553Z,35.47
2018-04-22T11:07:19.599Z,41.74
2018-04-22T11:08:19.582Z,41.08
2018-04-22T11:09:19.566Z,42.15
2018-04-22T11:10:19.583Z,48.43
2018-04-22T11:11:19.592Z,45.41
2018-04-22T11:12:19.609Z,43.62
2018-04-22T11:13:19.614Z,46.17
2018-04-22T11:14:19.677Z,43.86
2018-04-22T11:15:19.632Z,41.80
2018-04-22T11:16:19.638Z,38.96
2018-04-22T11:17:19.651Z,43.66
2018-04-22T11:18:19.658Z,43.05
2018-04-22T11:19:19.683Z,43.13
2018-04-22T11:20:19.670Z,41.90
2018-04-22T11:21:19.680Z,40.13
2018-04-22T11:22:19.690Z,41.33
2018-04-22T11:23:19.701Z,43.32
2018-04-22T11:24:19.735Z,38.58
2018-04-22T11:25:19.712Z,38.25
2018-04-22T11:26:19.743Z,36.47
2018-04-22T11:27:19.760Z,35.83
2018-04-22T11:28:19.737Z,36.22
2018-04-22T11:29:19.763Z,40.80
2018-04-22T11:30:19.766Z,36.10
2018-04-22T11:31:19.772Z,36.88
2018-04-22T11:32:19.779Z,43.17
2018-04-22T11:33:19.795Z,38.90
2018-04-22T11:34:19.799Z,42.05
2018-04-22T11:35:19.810Z,40.70
2018-04-22T11:36:19.808Z,36.80
2018-04-22T11:37:19.828Z,33.85
2018-04-22T11:38:19.832Z,36.19
2018-04-22T11:39:19.846Z,32.64
2018-04-22T11:40:19.849Z,31.26
2018-04-22T11:41:19.864Z,38.53
2018-04-22T11:42:19.865Z,38.13
2018-04-22T11:43:19.883Z,41.08
2018-04-22T11:44:19.894Z,40.09
2018-04-22T11:45:19.894Z,32.94
2018-04-22T11:46:19.913Z,38.33
2018-04-22T11:47:19.912Z,36.37
2018-04-22T11:48:19.919Z,37.46
2018-04-22T11:49:19.944Z,33.84
2018-04-22T11:50:19.942Z,35.78
2018-04-22T11:51:19.948Z,37.86
2018-04-22T11:52:19.948Z,31.97
2018-04-22T11:53:19.965Z,35.03
2018-04-22T11:54:19.980Z,31.19
2018-04-22T11:55:19.993Z,38.13
2018-04-22T11:56:20.003Z,38.92
2018-04-22T11:57:20.025Z,33.23
2018-04-22T11:58:20.009Z,43.23
2018-04-22T11:59:20.025Z,37.54
2018-04-22T12:00:20.040Z,34.51
2018-04-22T12:01:20.040Z,32.34
2018-04-22T12:02:20.081Z,30.85
2018-04-22T12:03:20.059Z,32.32
2018-04-22T12:04:20.081Z,35.55
2018-04-22T12:05:20.075Z,38.70
2018-04-22T12:06:20.088Z,33.80
2018-04-22T12:07:20.107Z,31.65
2018-04-22T12:08:20.102Z,33.51
2018-04-22T12:09:20.105Z,30.77
2018-04-22T12:10:20.139Z,33.31
2018-04-22T12:11:20.132Z,35.97
2018-04-22T12:12:20.138Z,36.18
2018-04-22T12:13:20.142Z,35.68
2018-04-22T12:14:20.161Z,34.39
2018-04-22T12:15:20.186Z,34.61
2018-04-22T12:16:20.180Z,34.51
2018-04-22T12:17:20.190Z,36.98
2018-04-22T12:18:20.209Z,35.89
2018-04-22T12:19:20.219Z,35.19
2018-04-22T12:20:20.212Z,34.59
2018-04-22T12:21:20.223Z,32.42
2018-04-22T12:22:20.223Z,32.71
2018-04-22T12:23:20.234Z,35.96
2018-04-22T12:24:20.244Z,34.51
2018-04-22T12:25:20.245Z,37.94
2018-04-22T12:26:20.274Z,33.14
2018-04-22T12:27:20.271Z,29.10
2018-04-22T12:28:20.273Z,35.37
2018-04-22T12:29:20.280Z,31.06
2018-04-22T12:30:20.298Z,34.59
2018-04-22T12:31:20.302Z,32.43
2018-04-22T12:32:20.305Z,40.09
2018-04-22T12:33:20.334Z,29.39
2018-04-22T12:34:20.322Z,33.20
2018-04-22T12:35:20.331Z,32.81
2018-04-22T12:36:20.337Z,35.35
2018-04-22T12:37:20.351Z,38.20
2018-04-22T12:38:20.354Z,35.35
2018-04-22T12:39:20.376Z,38.78
2018-04-22T12:40:20.385Z,32.20
2018-04-22T12:41:20.392Z,29.74
2018-04-22T12:42:20.401Z,35.81
2018-04-22T12:43:20.395Z,33.97
2018-04-22T12:44:20.409Z,31.13
2018-04-22T12:45:20.427Z,28.68
2018-04-22T12:46:20.420Z,38.29
2018-04-22T12:47:20.427Z,34.67
2018-04-22T12:48:20.436Z,30.65
2018-04-22T12:49:20.454Z,38.88
2018-04-22T12:50:20.480Z,40.45
2018-04-22T12:51:20.462Z,34.38
2018-04-22T12:52:20.466Z,29.55